createdAt,value
2022-11-20T00:01:33.005Z,81.00
2022-11-20T00:04:05.204Z,80.89
2022-11-20T00:06:36.866Z,81.13
2022-11-20T00:09:08.673Z,81.21
2022-11-20T00:11:40.323Z,81.06
2022-11-20T00:14:13.266Z,81.28
2022-11-20T00:16:44.790Z,81.26
2022-11-20T00:19:17.421Z,81.37
2022-11-20T00:21:52.395Z,81.62
2022-11-20T00:24:25.919Z,81.77
2022-11-20T00:26:57.608Z,81.70
2022-11-20T00:29:31.200Z,81.93
2022-11-20T00:32:02.891Z,82.08
2022-11-20T00:34:34.755Z,82.32
2022-11-20T00:37:06.518Z,82.24
2022-11-20T00:39:39.086Z,82.47
2022-11-20T00:42:12.661Z,82.46
2022-11-20T00:44:45.118Z,82.45
2022-11-20T00:47:20.885Z,82.56
2022-11-20T00:49:53.154Z,82.70
2022-11-20T00:52:24.806Z,82.60
2022-11-20T00:54:56.558Z,82.73
2022-11-20T00:57:28.266Z,82.87
2022-11-20T01:00:00.335Z,82.71
2022-11-20T01:02:32.325Z,82.81
2022-11-20T01:05:04.258Z,82.69
2022-11-20T01:07:39.468Z,82.84
2022-11-20T01:10:12.075Z,82.71
2022-11-20T01:12:43.751Z,82.80
2022-11-20T01:15:17.868Z,82.83
2022-11-20T01:17:49.484Z,82.76
2022-11-20T01:20:21.477Z,82.57
2022-11-20T01:22:53.137Z,82.44
2022-11-20T01:25:24.981Z,82.55
2022-11-20T01:27:56.712Z,82.55
2022-11-20T01:30:28.608Z,82.58
2022-11-20T01:33:00.183Z,82.54
2022-11-20T01:35:32.229Z,82.53
2022-11-20T01:38:03.883Z,82.65
2022-11-20T01:40:35.877Z,82.76
2022-11-20T01:43:22.588Z,82.99
2022-11-20T01:46:10.696Z,83.11
2022-11-20T01:48:48.247Z,83.09
2022-11-20T01:51:25.274Z,83.40
2022-11-20T01:53:57.795Z,83.76
2022-11-20T01:56:30.411Z,83.65
2022-11-20T01:59:04.185Z,83.57
2022-11-20T02:01:36.257Z,83.61
2022-11-20T02:04:08.956Z,83.57
2022-11-20T02:06:44.645Z,83.59
2022-11-20T02:09:17.747Z,83.48
2022-11-20T02:11:50.102Z,83.41
2022-11-20T02:14:22.078Z,83.13
2022-11-20T02:16:54.335Z,82.92
2022-11-20T02:19:28.615Z,82.94
2022-11-20T02:22:04.559Z,82.73
2022-11-20T02:24:36.187Z,82.58
2022-11-20T02:27:11.614Z,82.63
2022-11-20T02:29:47.940Z,82.57
2022-11-20T02:32:23.705Z,82.72
2022-11-20T02:34:55.499Z,82.60
2022-11-20T02:37:36.800Z,82.76
2022-11-20T02:40:11.037Z,82.84
2022-11-20T02:42:43.099Z,82.59
2022-11-20T02:45:14.957Z,83.03
2022-11-20T02:47:46.699Z,82.73
2022-11-20T02:50:18.576Z,82.59
2022-11-20T02:52:50.338Z,82.57
2022-11-20T02:55:22.201Z,82.71
2022-11-20T02:57:54.311Z,82.66
2022-11-20T03:00:25.941Z,83.09
2022-11-20T03:02:57.787Z,83.14
2022-11-20T03:05:29.450Z,83.07
2022-11-20T03:08:01.397Z,83.36
2022-11-20T03:10:33.070Z,83.60
2022-11-20T03:13:05.003Z,83.60
2022-11-20T03:15:37.759Z,83.58
2022-11-20T03:18:09.859Z,83.61
2022-11-20T03:20:41.480Z,83.40
2022-11-20T03:23:13.402Z,83.51
2022-11-20T03:25:46.138Z,83.96
2022-11-20T03:28:17.909Z,84.07
2022-11-20T03:30:49.581Z,83.95
2022-11-20T03:33:21.443Z,84.04
2022-11-20T03:35:53.010Z,84.26
2022-11-20T03:38:24.896Z,84.46
2022-11-20T03:41:02.453Z,84.78
2022-11-20T03:43:34.717Z,84.91
2022-11-20T03:46:07.250Z,84.73
2022-11-20T03:48:39.008Z,84.96
2022-11-20T03:51:15.174Z,85.09
2022-11-20T03:53:49.156Z,85.40
2022-11-20T03:56:22.992Z,85.45
2022-11-20T03:58:54.992Z,85.29
2022-11-20T04:01:28.652Z,85.55
2022-11-20T04:04:00.870Z,85.49
2022-11-20T04:06:35.928Z,85.73
2022-11-20T04:09:09.059Z,85.83
2022-11-20T04:11:43.410Z,86.19
2022-11-20T04:14:17.800Z,86.18
2022-11-20T04:16:49.386Z,86.51
2022-11-20T04:19:21.275Z,86.50
2022-11-20T04:21:53.172Z,86.45
2022-11-20T04:24:25.436Z,86.44
2022-11-20T04:26:57.069Z,86.43
2022-11-20T04:29:29.045Z,86.62
2022-11-20T04:32:00.638Z,86.76
2022-11-20T04:34:32.338Z,86.63
2022-11-20T04:37:03.972Z,86.17
2022-11-20T04:39:36.153Z,85.95
2022-11-20T04:42:25.711Z,85.95
2022-11-20T04:44:58.685Z,85.68
2022-11-20T04:47:30.489Z,85.74
2022-11-20T04:50:02.332Z,85.73
2022-11-20T04:52:34.029Z,85.76
2022-11-20T04:55:06.585Z,85.71
2022-11-20T04:57:38.310Z,85.78
2022-11-20T05:00:12.850Z,85.60
2022-11-20T05:02:44.682Z,85.49
2022-11-20T05:05:17.164Z,85.50
2022-11-20T05:07:48.798Z,85.56
2022-11-20T05:10:20.731Z,85.55
2022-11-20T05:12:52.362Z,85.48
2022-11-20T05:15:24.281Z,85.47
2022-11-20T05:17:56.513Z,85.38
2022-11-20T05:20:28.255Z,85.15
2022-11-20T05:23:01.330Z,85.10
2022-11-20T05:25:33.261Z,85.10
2022-11-20T05:28:05.079Z,84.92
2022-11-20T05:30:37.087Z,85.10
2022-11-20T05:33:10.073Z,84.91
2022-11-20T05:35:41.801Z,84.78
2022-11-20T05:38:13.465Z,84.93
2022-11-20T05:40:45.289Z,84.98
2022-11-20T05:43:16.944Z,84.90
2022-11-20T05:45:57.283Z,85.04
2022-11-20T05:48:29.070Z,84.97
2022-11-20T05:51:02.508Z,85.07
2022-11-20T05:53:35.441Z,85.07
2022-11-20T05:56:11.139Z,84.89
2022-11-20T05:58:43.111Z,84.74
2022-11-20T06:01:17.699Z,84.80
2022-11-20T06:03:51.677Z,84.88
2022-11-20T06:06:24.516Z,84.64
2022-11-20T06:08:56.309Z,84.60
2022-11-20T06:11:28.413Z,84.69
2022-11-20T06:14:00.048Z,84.77
2022-11-20T06:16:32.128Z,84.82
2022-11-20T06:19:03.778Z,85.12
2022-11-20T06:21:35.826Z,85.42
2022-11-20T06:24:08.262Z,85.46
2022-11-20T06:26:42.394Z,85.45
2022-11-20T06:29:12.534Z,85.63
2022-11-20T06:31:44.679Z,85.67
2022-11-20T06:34:16.429Z,85.72
2022-11-20T06:36:48.605Z,85.80
2022-11-20T06:39:20.695Z,85.79
2022-11-20T06:41:58.369Z,85.82
2022-11-20T06:44:30.665Z,85.86
2022-11-20T06:47:02.384Z,85.86
2022-11-20T06:49:35.389Z,85.70
2022-11-20T06:52:07.433Z,85.78
2022-11-20T06:54:39.135Z,85.72
2022-11-20T06:57:11.587Z,85.71
2022-11-20T06:59:43.251Z,85.44
2022-11-20T07:02:15.808Z,85.59
2022-11-20T07:04:47.488Z,85.44
2022-11-20T07:07:19.564Z,85.52
2022-11-20T07:09:54.036Z,85.51
2022-11-20T07:12:25.740Z,85.43
2022-11-20T07:14:57.687Z,85.51
2022-11-20T07:17:29.499Z,85.50
2022-11-20T07:20:01.371Z,85.39
2022-11-20T07:22:33.267Z,85.27
2022-11-20T07:25:05.650Z,85.15
2022-11-20T07:27:37.887Z,85.25
2022-11-20T07:30:11.130Z,85.21
2022-11-20T07:32:42.773Z,85.08
2022-11-20T07:35:14.445Z,85.15
2022-11-20T07:37:47.075Z,85.26
2022-11-20T07:40:20.887Z,85.12
2022-11-20T07:42:53.434Z,85.25
2022-11-20T07:45:26.075Z,85.04
2022-11-20T07:47:58.126Z,84.95
2022-11-20T07:50:29.810Z,84.87
2022-11-20T07:53:09.085Z,84.66
2022-11-20T07:55:40.708Z,84.47
2022-11-20T07:58:12.951Z,84.55
2022-11-20T08:00:44.840Z,84.48
2022-11-20T08:03:21.646Z,83.81
2022-11-20T08:05:56.348Z,82.88
2022-11-20T08:08:28.055Z,82.23
2022-11-20T08:11:22.212Z,80.10
2022-11-20T08:14:11.849Z,77.56
2022-11-20T08:16:44.163Z,75.96
2022-11-20T08:19:18.578Z,75.26
2022-11-20T08:21:50.644Z,73.58
2022-11-20T08:24:22.781Z,74.48
2022-11-20T08:26:54.427Z,72.35
2022-11-20T08:29:26.139Z,72.18
2022-11-20T08:31:57.788Z,72.90
2022-11-20T08:34:43.129Z,72.29
2022-11-20T08:37:14.717Z,71.17
2022-11-20T08:39:48.171Z,68.02
2022-11-20T08:42:19.967Z,67.54
2022-11-20T08:44:51.969Z,65.49
2022-11-20T08:47:23.598Z,66.60
2022-11-20T08:49:55.544Z,67.71
2022-11-20T08:52:27.165Z,67.41
2022-11-20T08:54:59.452Z,67.93
2022-11-20T08:57:31.036Z,64.42
2022-11-20T09:00:07.124Z,62.25
2022-11-20T09:02:39.079Z,60.99
2022-11-20T09:05:11.545Z,60.06
2022-11-20T09:07:43.256Z,60.15
2022-11-20T09:10:24.473Z,60.99
2022-11-20T09:12:57.416Z,61.99
2022-11-20T09:15:30.272Z,60.95
2022-11-20T09:18:03.476Z,60.05
2022-11-20T09:20:35.384Z,60.58
2022-11-20T09:23:07.012Z,60.97
2022-11-20T09:25:39.028Z,61.59
2022-11-20T09:28:10.704Z,61.75
2022-11-20T09:30:42.870Z,61.39
2022-11-20T09:33:14.636Z,61.45
2022-11-20T09:35:46.632Z,62.74
2022-11-20T09:38:18.351Z,62.59
2022-11-20T09:40:55.339Z,63.19
2022-11-20T09:43:35.248Z,64.51
2022-11-20T09:46:12.968Z,64.56
2022-11-20T09:48:54.691Z,64.76
2022-11-20T09:51:35.691Z,65.44
2022-11-20T09:54:17.744Z,66.62
2022-11-20T09:56:54.160Z,67.34
2022-11-20T09:59:37.492Z,68.12
2022-11-20T10:02:30.602Z,68.76
2022-11-20T10:05:06.627Z,69.14
2022-11-20T10:07:43.752Z,69.72
2022-11-20T10:10:19.793Z,70.23
2022-11-20T10:13:03.579Z,70.61
2022-11-20T10:15:40.510Z,71.15
2022-11-20T10:18:25.997Z,71.37
2022-11-20T10:21:04.926Z,71.70
2022-11-20T10:23:51.207Z,71.76
2022-11-20T10:26:28.347Z,72.02
2022-11-20T10:29:09.098Z,72.03
2022-11-20T10:31:43.187Z,72.25
2022-11-20T10:34:23.571Z,72.51
2022-11-20T10:36:58.592Z,72.82
2022-11-20T10:39:36.486Z,72.87
2022-11-20T10:42:13.039Z,73.09
2022-11-20T10:45:06.753Z,73.14
2022-11-20T10:47:39.216Z,73.38
2022-11-20T10:50:19.029Z,73.62
2022-11-20T10:53:03.357Z,73.71
2022-11-20T10:55:40.920Z,73.65
2022-11-20T10:58:19.325Z,73.86
2022-11-20T11:00:51.429Z,73.94
2022-11-20T11:03:28.320Z,73.91
2022-11-20T11:06:03.688Z,73.92
2022-11-20T11:08:39.876Z,74.12
2022-11-20T11:11:24.379Z,74.29
2022-11-20T11:13:56.120Z,74.30
2022-11-20T11:16:29.332Z,74.14
2022-11-20T11:19:12.822Z,74.17
2022-11-20T11:21:55.654Z,74.37
2022-11-20T11:24:44.215Z,74.26
2022-11-20T11:27:19.156Z,74.12
2022-11-20T11:29:51.039Z,74.28
2022-11-20T11:32:24.088Z,74.22
2022-11-20T11:35:08.485Z,74.33
2022-11-20T11:37:41.329Z,74.25
2022-11-20T11:40:30.087Z,74.17
2022-11-20T11:43:04.125Z,74.14
2022-11-20T11:45:36.016Z,74.33
2022-11-20T11:48:12.162Z,74.29
2022-11-20T11:50:52.992Z,74.29
2022-11-20T11:53:26.000Z,74.26
2022-11-20T11:56:04.927Z,74.14
2022-11-20T11:58:47.098Z,74.09
2022-11-20T12:01:29.342Z,73.99
2022-11-20T12:04:04.881Z,74.06
2022-11-20T12:06:38.766Z,74.13
2022-11-20T12:09:12.935Z,74.31
2022-11-20T12:11:49.409Z,74.33
2022-11-20T12:14:28.607Z,74.39
2022-11-20T12:17:00.645Z,74.46
2022-11-20T12:19:34.978Z,74.53
2022-11-20T12:22:14.163Z,74.67
2022-11-20T12:24:56.294Z,74.66
2022-11-20T12:27:50.089Z,74.65
2022-11-20T12:30:23.315Z,74.55
2022-11-20T12:33:29.248Z,74.48
2022-11-20T12:36:12.067Z,74.61
2022-11-20T12:39:00.115Z,74.63
2022-11-20T12:42:05.990Z,74.71
2022-11-20T12:45:11.823Z,74.60
2022-11-20T12:48:11.806Z,74.67
2022-11-20T12:51:13.924Z,74.50
2022-11-20T12:53:49.701Z,74.58
2022-11-20T12:56:29.937Z,74.60
2022-11-20T12:59:11.786Z,74.56
2022-11-20T13:01:50.735Z,74.45
2022-11-20T13:04:34.631Z,74.63
2022-11-20T13:07:10.939Z,74.69
2022-11-20T13:09:45.893Z,74.66
2022-11-20T13:12:22.246Z,74.77
2022-11-20T13:14:58.211Z,74.75
2022-11-20T13:17:35.636Z,74.80
2022-11-20T13:20:14.279Z,74.90
2022-11-20T13:22:50.723Z,74.82
2022-11-20T13:25:33.706Z,74.82
2022-11-20T13:28:07.934Z,74.76
2022-11-20T13:30:50.919Z,74.63
2022-11-20T13:33:31.406Z,74.47
2022-11-20T13:36:05.638Z,74.32
2022-11-20T13:38:44.251Z,74.55
2022-11-20T13:41:32.488Z,74.63
2022-11-20T13:44:15.749Z,74.67
2022-11-20T13:46:49.153Z,74.74
2022-11-20T13:49:26.057Z,74.62
2022-11-20T13:52:08.844Z,74.62
2022-11-20T13:54:55.275Z,74.54
2022-11-20T13:57:47.163Z,74.48
2022-11-20T14:00:21.698Z,74.76
2022-11-20T14:03:04.223Z,74.92
2022-11-20T14:05:39.225Z,75.03
2022-11-20T14:08:28.021Z,75.04
2022-11-20T14:11:14.832Z,75.20
2022-11-20T14:14:03.363Z,75.23
2022-11-20T14:16:37.066Z,75.21
2022-11-20T14:19:31.554Z,75.46
2022-11-20T14:22:20.222Z,75.54
2022-11-20T14:25:03.392Z,75.66
2022-11-20T14:27:37.925Z,75.79
2022-11-20T14:30:17.742Z,75.97
2022-11-20T14:32:50.587Z,76.10
2022-11-20T14:35:26.266Z,76.20
2022-11-20T14:37:58.551Z,76.27
2022-11-20T14:40:37.063Z,76.34
2022-11-20T14:43:25.584Z,76.41
2022-11-20T14:46:02.063Z,76.78
2022-11-20T14:48:40.928Z,76.81
2022-11-20T14:51:21.570Z,76.85
2022-11-20T14:54:16.340Z,76.94
2022-11-20T14:56:59.563Z,76.90
2022-11-20T14:59:32.607Z,77.06
2022-11-20T15:02:07.489Z,77.55
2022-11-20T15:04:48.439Z,77.56
2022-11-20T15:07:31.528Z,77.72
2022-11-20T15:10:10.369Z,77.81
2022-11-20T15:12:48.177Z,78.18
2022-11-20T15:15:23.083Z,78.26
2022-11-20T15:17:55.366Z,78.50
2022-11-20T15:20:31.775Z,78.61
2022-11-20T15:23:04.501Z,79.07
2022-11-20T15:25:40.030Z,79.26
2022-11-20T15:28:18.749Z,79.08
2022-11-20T15:30:52.116Z,79.15
2022-11-20T15:33:26.891Z,79.24
2022-11-20T15:36:01.101Z,79.21
2022-11-20T15:38:34.186Z,79.16
2022-11-20T15:41:10.609Z,79.52
2022-11-20T15:43:45.054Z,79.60
2022-11-20T15:46:21.756Z,79.85
2022-11-20T15:48:58.619Z,79.71
2022-11-20T15:51:33.111Z,79.91
2022-11-20T15:54:10.420Z,79.45
2022-11-20T15:56:43.403Z,79.60
2022-11-20T15:59:17.361Z,79.68
2022-11-20T16:01:52.065Z,80.04
2022-11-20T16:04:25.008Z,80.30
2022-11-20T16:07:02.065Z,80.22
2022-11-20T16:09:34.674Z,80.37
2022-11-20T16:12:30.624Z,80.58
2022-11-20T16:15:21.269Z,80.49
2022-11-20T16:17:57.140Z,80.66
2022-11-20T16:20:30.651Z,80.69
2022-11-20T16:23:12.477Z,80.82
2022-11-20T16:25:46.142Z,80.90
2022-11-20T16:28:19.314Z,81.24
2022-11-20T16:30:52.146Z,81.32
2022-11-20T16:33:25.939Z,81.40
2022-11-20T16:36:01.929Z,81.54
2022-11-20T16:38:34.762Z,81.91
2022-11-20T16:41:14.485Z,81.93
2022-11-20T16:43:51.857Z,81.99
2022-11-20T17:12:50.280Z,82.50
2022-11-20T17:15:22.218Z,82.25
2022-11-20T17:17:54.202Z,82.36
2022-11-20T17:20:26.250Z,82.10
2022-11-20T17:22:59.420Z,82.51
2022-11-20T17:25:36.607Z,82.46
2022-11-20T17:28:09.221Z,82.62
2022-11-20T17:30:41.878Z,82.71
2022-11-20T17:33:14.673Z,82.54
2022-11-20T17:35:47.005Z,82.64
2022-11-20T17:38:19.770Z,82.52
2022-11-20T17:40:51.634Z,82.75
2022-11-20T17:43:23.789Z,82.76
2022-11-20T17:45:58.930Z,82.76
2022-11-20T17:48:34.428Z,82.73
2022-11-20T17:51:08.335Z,82.82
2022-11-20T17:53:45.545Z,82.87
2022-11-20T17:56:34.915Z,82.89
2022-11-20T17:59:09.141Z,82.85
2022-11-20T18:01:43.263Z,82.70
2022-11-20T18:04:13.978Z,83.06
2022-11-20T18:06:46.687Z,82.72
2022-11-20T18:09:19.881Z,82.87
2022-11-20T18:11:51.766Z,82.74
2022-11-20T18:14:34.663Z,82.72
2022-11-20T18:17:07.737Z,82.79
2022-11-20T18:19:51.619Z,82.85
2022-11-20T18:22:32.584Z,82.93
2022-11-20T18:25:04.320Z,83.01
2022-11-20T18:27:36.533Z,83.20
2022-11-20T18:30:10.309Z,83.41
2022-11-20T18:32:42.825Z,83.04
2022-11-20T18:35:15.344Z,83.01
2022-11-20T18:37:48.157Z,83.12
2022-11-20T18:40:20.552Z,82.94
2022-11-20T18:43:09.990Z,83.05
2022-11-20T18:45:42.636Z,82.69
2022-11-20T18:48:14.594Z,83.25
2022-11-20T18:50:47.062Z,83.43
2022-11-20T18:53:18.935Z,83.20
2022-11-20T18:55:51.268Z,83.03
2022-11-20T18:58:23.081Z,83.00
2022-11-20T19:00:55.298Z,82.91
2022-11-20T19:03:29.673Z,82.75
2022-11-20T19:06:02.048Z,82.79
2022-11-20T19:08:36.578Z,82.54
2022-11-20T19:11:10.355Z,82.93
2022-11-20T19:13:42.397Z,82.50
2022-11-20T19:16:18.043Z,82.91
2022-11-20T19:18:50.338Z,82.81
2022-11-20T19:21:23.943Z,82.87
2022-11-20T19:23:58.539Z,83.01
2022-11-20T19:26:31.271Z,83.05
2022-11-20T19:29:15.766Z,83.21
2022-11-20T19:31:49.282Z,83.26
2022-11-20T19:34:34.763Z,83.37
2022-11-20T19:37:11.288Z,83.87
2022-11-20T19:39:43.518Z,84.33
2022-11-20T19:42:16.720Z,84.15
2022-11-20T19:44:48.461Z,84.27
2022-11-20T19:47:40.825Z,84.23
2022-11-20T19:50:25.791Z,84.38
2022-11-20T19:53:02.272Z,84.26
2022-11-20T19:55:34.870Z,84.28
2022-11-20T19:58:07.095Z,84.26
2022-11-20T20:00:39.068Z,84.32
2022-11-20T20:03:14.904Z,84.18
2022-11-20T20:05:52.320Z,84.40
2022-11-20T20:08:24.412Z,84.73
2022-11-20T20:10:59.918Z,85.00
2022-11-20T20:13:33.570Z,85.24
2022-11-20T20:16:11.592Z,85.17
2022-11-20T20:18:45.801Z,85.05
2022-11-20T20:21:24.328Z,85.10
2022-11-20T20:23:57.404Z,85.11
2022-11-20T20:26:31.606Z,85.42
2022-11-20T20:29:04.971Z,85.43
2022-11-20T20:31:38.492Z,85.59
2022-11-20T20:34:15.510Z,85.60
2022-11-20T20:36:47.300Z,85.67
2022-11-20T20:39:20.030Z,85.89
2022-11-20T20:41:53.470Z,85.90
2022-11-20T20:44:43.025Z,85.78
2022-11-20T20:47:14.874Z,85.99
2022-11-20T20:49:47.114Z,85.85
2022-11-20T20:52:19.108Z,85.67
2022-11-20T20:54:51.382Z,85.76
2022-11-20T20:57:23.801Z,85.57
2022-11-20T20:59:55.965Z,86.06
2022-11-20T21:02:28.246Z,86.05
2022-11-20T21:05:00.657Z,86.08
2022-11-20T21:07:33.629Z,85.83
2022-11-20T21:10:05.911Z,85.91
2022-11-20T21:12:37.758Z,85.80
2022-11-20T21:15:10.825Z,86.09
2022-11-20T21:17:44.424Z,85.89
2022-11-20T21:20:45.269Z,85.73
2022-11-20T21:23:17.728Z,86.17
2022-11-20T21:25:49.851Z,86.27
2022-11-20T21:28:21.879Z,86.15
2022-11-20T21:30:54.050Z,86.29
2022-11-20T21:33:26.004Z,86.19
2022-11-20T21:35:57.894Z,86.54
2022-11-20T21:38:29.761Z,86.62
2022-11-20T21:41:01.705Z,86.29
2022-11-20T21:43:33.657Z,86.64
2022-11-20T21:46:07.819Z,87.00
2022-11-20T21:48:46.654Z,87.11
2022-11-20T21:51:22.924Z,87.13
2022-11-20T21:53:57.931Z,87.15
2022-11-20T21:56:29.996Z,86.99
2022-11-20T21:59:02.092Z,87.21
2022-11-20T22:01:34.224Z,86.95
2022-11-20T22:04:07.833Z,87.13
2022-11-20T22:06:39.639Z,87.11
2022-11-20T22:09:12.782Z,87.07
2022-11-20T22:11:44.507Z,86.78
2022-11-20T22:14:22.785Z,86.91
2022-11-20T22:16:56.425Z,86.99
2022-11-20T22:19:31.970Z,86.92
2022-11-20T22:22:04.089Z,87.20
2022-11-20T22:24:35.721Z,87.24
2022-11-20T22:27:07.599Z,87.20
2022-11-20T22:29:39.409Z,87.15
2022-11-20T22:32:11.292Z,87.09
2022-11-20T22:34:43.016Z,87.12
2022-11-20T22:37:16.183Z,86.79
2022-11-20T22:39:48.916Z,86.93
2022-11-20T22:42:20.913Z,86.86
2022-11-20T22:44:52.956Z,86.98
2022-11-20T22:47:25.117Z,86.68
2022-11-20T22:49:56.984Z,86.95
2022-11-20T22:52:29.006Z,86.86
2022-11-20T22:55:00.676Z,86.57
2022-11-20T22:57:34.019Z,86.69
2022-11-20T23:00:15.099Z,86.92
2022-11-20T23:02:47.795Z,86.97
2022-11-20T23:05:22.195Z,87.35
2022-11-20T23:08:07.225Z,87.40
2022-11-20T23:10:42.685Z,87.74
2022-11-20T23:13:19.111Z,88.14
2022-11-20T23:15:52.989Z,88.12
2022-11-20T23:18:35.506Z,88.15
2022-11-20T23:21:09.868Z,88.16
2022-11-20T23:23:42.757Z,88.77
2022-11-20T23:26:16.577Z,88.79
2022-11-20T23:28:49.571Z,88.53
2022-11-20T23:31:24.137Z,89.08
2022-11-20T23:33:57.635Z,89.00
2022-11-20T23:36:30.297Z,89.10
2022-11-20T23:39:02.195Z,88.74
2022-11-20T23:41:34.200Z,88.92
2022-11-20T23:44:06.164Z,88.85
2022-11-20T23:46:38.979Z,88.86
2022-11-20T23:49:11.595Z,88.68
2022-11-20T23:51:43.663Z,88.77
2022-11-20T23:54:15.452Z,88.69
2022-11-20T23:56:47.179Z,88.84
2022-11-20T23:59:19.508Z,88.30
